createdAt,value
2023-05-11T00:00:46.330Z,15.06
2023-05-11T00:04:34.217Z,14.92
2023-05-11T00:07:48.424Z,14.86
2023-05-11T00:11:36.689Z,14.75
2023-05-11T00:14:40.320Z,14.60
2023-05-11T00:18:16.752Z,14.58
2023-05-11T00:21:22.174Z,14.45
2023-05-11T00:24:35.257Z,14.23
2023-05-11T00:28:16.396Z,13.94
2023-05-11T00:31:46.599Z,13.70
2023-05-11T00:34:57.514Z,13.58
2023-05-11T00:38:07.390Z,13.47
2023-05-11T00:41:54.980Z,13.34
2023-05-11T00:45:24.958Z,13.13
2023-05-11T00:49:05.471Z,13.06
2023-05-11T00:51:57.353Z,12.89
2023-05-11T00:54:53.844Z,12.78
2023-05-11T00:57:39.864Z,12.71
2023-05-11T01:00:47.166Z,12.67
2023-05-11T01:04:32.163Z,12.59
2023-05-11T01:07:59.639Z,12.46
2023-05-11T01:11:55.576Z,12.50
2023-05-11T01:15:11.210Z,12.40
2023-05-11T01:18:37.915Z,12.34
2023-05-11T01:22:25.486Z,12.37
2023-05-11T01:25:52.416Z,12.44
2023-05-11T01:29:36.363Z,12.48
2023-05-11T01:33:14.922Z,12.51
2023-05-11T01:36:41.957Z,12.49
2023-05-11T01:39:57.214Z,12.46
2023-05-11T01:42:45.230Z,12.60
2023-05-11T01:46:15.254Z,12.69
2023-05-11T01:49:39.932Z,12.72
2023-05-11T01:53:00.682Z,12.69
2023-05-11T01:56:11.517Z,12.68
2023-05-11T01:59:13.724Z,12.74
2023-05-11T02:01:57.678Z,12.72
2023-05-11T02:05:21.538Z,12.68
2023-05-11T02:08:29.041Z,12.70
2023-05-11T02:11:54.993Z,12.76
2023-05-11T02:15:06.138Z,12.72
2023-05-11T02:17:53.008Z,12.77
2023-05-11T02:21:12.941Z,12.78
2023-05-11T02:25:00.583Z,12.81
2023-05-11T02:28:21.267Z,12.69
2023-05-11T02:31:14.668Z,12.63
2023-05-11T02:34:37.123Z,12.63
2023-05-11T02:37:48.434Z,12.67
2023-05-11T02:41:19.635Z,12.63
2023-05-11T02:44:13.550Z,12.61
2023-05-11T02:47:52.760Z,12.73
2023-05-11T02:50:35.423Z,12.76
2023-05-11T02:53:12.819Z,12.78
2023-05-11T02:56:41.874Z,12.79
2023-05-11T03:00:22.324Z,12.69
2023-05-11T03:03:20.949Z,12.67
2023-05-11T03:06:48.716Z,12.67
2023-05-11T03:10:26.345Z,12.66
2023-05-11T03:13:56.892Z,12.73
2023-05-11T03:17:05.319Z,12.85
2023-05-11T03:20:35.432Z,12.80
2023-05-11T03:23:56.229Z,12.97
2023-05-11T03:27:43.334Z,13.33
2023-05-11T03:31:17.947Z,13.81
2023-05-11T03:34:49.079Z,14.20
2023-05-11T03:38:36.678Z,14.30
2023-05-11T03:42:24.348Z,14.53
2023-05-11T03:45:55.715Z,14.78
2023-05-11T03:49:43.292Z,14.78
2023-05-11T03:52:55.828Z,14.58
2023-05-11T03:55:50.109Z,14.30
2023-05-11T03:58:55.095Z,14.12
2023-05-11T04:01:46.400Z,14.03
2023-05-11T04:05:30.517Z,14.05
2023-05-11T04:08:43.648Z,13.85
2023-05-11T04:12:04.200Z,13.67
2023-05-11T04:15:32.990Z,13.66
2023-05-11T04:19:01.239Z,13.36
2023-05-11T04:22:20.908Z,13.36
2023-05-11T04:26:04.051Z,13.26
2023-05-11T04:29:36.221Z,13.32
2023-05-11T04:33:16.483Z,13.50
2023-05-11T04:36:55.358Z,13.64
2023-05-11T04:40:18.067Z,13.86
2023-05-11T04:43:28.889Z,14.25
2023-05-11T04:46:31.976Z,14.63
2023-05-11T04:50:13.154Z,14.89
2023-05-11T04:53:17.851Z,14.73
2023-05-11T04:56:38.433Z,14.96
2023-05-11T05:00:17.710Z,15.23
2023-05-11T05:04:05.976Z,15.22
2023-05-11T05:07:12.175Z,15.18
2023-05-11T05:10:21.512Z,15.10
2023-05-11T05:13:53.985Z,15.01
2023-05-11T05:17:06.877Z,14.90
2023-05-11T05:20:43.374Z,14.87
2023-05-11T05:24:10.255Z,14.89
2023-05-11T05:27:21.172Z,15.18
2023-05-11T05:30:36.413Z,15.38
2023-05-11T05:33:29.677Z,15.61
2023-05-11T05:36:49.803Z,15.84
2023-05-11T05:39:57.301Z,16.17
2023-05-11T05:42:48.109Z,15.72
2023-05-11T05:46:20.767Z,15.67
2023-05-11T05:49:17.032Z,15.94
2023-05-11T05:52:35.027Z,16.28
2023-05-11T05:55:58.246Z,16.40
2023-05-11T05:59:45.704Z,16.60
2023-05-11T06:03:16.106Z,16.61
2023-05-11T06:06:48.038Z,16.53
2023-05-11T06:10:03.542Z,16.62
2023-05-11T06:13:23.587Z,16.75
2023-05-11T06:17:09.989Z,16.77
2023-05-11T06:20:27.827Z,16.81
2023-05-11T06:24:15.643Z,16.74
2023-05-11T06:27:30.582Z,16.85
2023-05-11T06:30:43.017Z,16.70
2023-05-11T06:34:19.612Z,16.82
2023-05-11T06:37:47.301Z,16.86
2023-05-11T06:41:13.603Z,17.12
2023-05-11T06:44:29.091Z,17.43
2023-05-11T06:48:02.008Z,17.60
2023-05-11T06:51:21.061Z,17.48
2023-05-11T06:54:33.419Z,17.27
2023-05-11T06:58:10.489Z,17.22
2023-05-11T07:01:16.416Z,17.38
2023-05-11T07:04:24.684Z,17.39
2023-05-11T07:08:12.518Z,17.52
2023-05-11T07:11:51.321Z,17.60
2023-05-11T07:15:29.374Z,18.30
2023-05-11T07:19:15.285Z,19.67
2023-05-11T07:23:02.602Z,20.73
2023-05-11T07:26:48.809Z,20.49
2023-05-11T07:30:37.011Z,21.31
2023-05-11T07:34:16.648Z,20.13
2023-05-11T07:37:35.528Z,20.80
2023-05-11T07:41:11.590Z,20.32
2023-05-11T07:45:00.251Z,20.43
2023-05-11T07:48:47.909Z,19.74
2023-05-11T07:52:25.638Z,20.96
2023-05-11T07:55:49.399Z,21.75
2023-05-11T07:59:29.624Z,21.42
2023-05-11T08:03:20.669Z,21.39
2023-05-11T08:06:27.815Z,21.96
2023-05-11T08:10:15.347Z,22.18
2023-05-11T08:14:01.765Z,22.33
2023-05-11T08:17:29.214Z,22.76
2023-05-11T08:21:15.812Z,23.07
2023-05-11T08:24:57.237Z,22.85
2023-05-11T08:28:28.844Z,21.93
2023-05-11T08:32:16.777Z,22.57
2023-05-11T08:35:46.154Z,23.59
2023-05-11T08:43:26.390Z,23.24
2023-05-11T08:47:20.950Z,22.55
2023-05-11T08:50:57.003Z,22.53
2023-05-11T08:54:38.868Z,22.18
2023-05-11T08:58:26.736Z,23.09
2023-05-11T09:02:15.768Z,23.13
2023-05-11T09:06:03.858Z,23.79
2023-05-11T09:09:51.555Z,24.88
2023-05-11T09:13:37.784Z,24.81
2023-05-11T09:17:25.224Z,25.04
2023-05-11T09:21:27.053Z,26.13
2023-05-11T09:25:14.613Z,25.54
2023-05-11T09:29:03.032Z,25.82
2023-05-11T09:32:52.004Z,25.01
2023-05-11T09:36:40.270Z,24.48
2023-05-11T09:40:34.272Z,24.39
2023-05-11T09:44:22.590Z,24.18
2023-05-11T09:48:13.214Z,24.86
2023-05-11T09:52:03.809Z,26.27
2023-05-11T09:55:40.021Z,26.09
2023-05-11T09:59:27.680Z,24.84
2023-05-11T10:03:18.761Z,25.83
2023-05-11T10:07:00.131Z,26.70
2023-05-11T10:10:48.639Z,26.85
2023-05-11T10:14:36.864Z,26.64
2023-05-11T10:18:25.147Z,26.84
2023-05-11T10:22:13.373Z,27.50
2023-05-11T10:26:01.610Z,26.36
2023-05-11T10:28:53.167Z,26.31
2023-05-11T10:32:17.004Z,27.17
2023-05-11T10:35:37.112Z,27.35
2023-05-11T10:39:25.099Z,28.02
2023-05-11T10:43:39.824Z,28.38
2023-05-11T10:47:25.814Z,26.85
2023-05-11T10:51:10.252Z,27.33
2023-05-11T10:55:06.966Z,29.20
2023-05-11T10:58:54.622Z,28.69
2023-05-11T11:02:42.803Z,28.96
2023-05-11T11:06:33.752Z,29.88
2023-05-11T11:10:04.000Z,29.22
2023-05-11T11:14:05.088Z,28.70
2023-05-11T11:17:54.435Z,28.76
2023-05-11T11:21:38.976Z,28.24
2023-05-11T11:25:38.711Z,28.11
2023-05-11T11:29:27.126Z,28.69
2023-05-11T11:33:18.746Z,28.55
2023-05-11T11:37:05.022Z,30.41
2023-05-11T11:40:52.310Z,31.26
2023-05-11T11:44:40.648Z,31.18
2023-05-11T11:48:18.385Z,31.67
2023-05-11T11:52:08.862Z,29.70
2023-05-11T11:55:56.606Z,28.46
2023-05-11T11:59:42.188Z,26.97
2023-05-11T12:03:23.691Z,28.01
2023-05-11T12:07:20.930Z,28.04
2023-05-11T12:11:02.823Z,28.79
2023-05-11T12:14:40.736Z,29.54
2023-05-11T12:18:19.331Z,29.84
2023-05-11T12:22:12.303Z,30.07
2023-05-11T12:26:00.620Z,29.26
2023-05-11T12:29:47.270Z,29.67
2023-05-11T12:33:35.628Z,30.08
2023-05-11T12:37:18.087Z,29.88
2023-05-11T12:41:07.134Z,29.27
2023-05-11T12:44:40.643Z,29.68
2023-05-11T12:48:05.504Z,30.20
2023-05-11T12:51:46.370Z,29.88
2023-05-11T12:55:34.262Z,29.07
2023-05-11T12:59:00.203Z,28.69
2023-05-11T13:02:48.149Z,29.07
2023-05-11T13:06:25.153Z,29.10
2023-05-11T13:09:38.420Z,29.79
2023-05-11T13:13:09.451Z,29.47
2023-05-11T13:17:02.915Z,28.36
2023-05-11T13:20:58.613Z,28.09
2023-05-11T13:24:26.790Z,29.46
2023-05-11T13:28:05.455Z,28.94
2023-05-11T13:31:32.284Z,28.44
2023-05-11T13:35:20.162Z,28.23
2023-05-11T13:39:07.893Z,28.89
2023-05-11T13:42:48.351Z,29.30
2023-05-11T13:46:35.801Z,28.00
2023-05-11T13:50:06.159Z,27.89
2023-05-11T13:53:46.604Z,26.79
2023-05-11T13:57:55.408Z,27.23
2023-05-11T14:01:36.992Z,27.60
2023-05-11T14:05:25.280Z,27.12
2023-05-11T14:09:13.691Z,26.31
2023-05-11T14:12:37.036Z,25.27
2023-05-11T14:16:16.450Z,24.95
2023-05-11T14:20:04.884Z,25.25
2023-05-11T14:23:53.135Z,25.32
2023-05-11T14:27:34.078Z,24.35
2023-05-11T14:31:11.812Z,24.50
2023-05-11T14:34:59.918Z,24.24
2023-05-11T14:38:39.008Z,24.83
2023-05-11T14:42:19.884Z,24.96
2023-05-11T14:45:30.397Z,25.52
2023-05-11T14:49:14.819Z,25.19
2023-05-11T14:53:02.865Z,25.27
2023-05-11T14:56:30.065Z,26.10
2023-05-11T14:59:20.412Z,26.06
2023-05-11T15:02:39.627Z,25.72
2023-05-11T15:06:21.523Z,25.76
2023-05-11T15:10:01.572Z,26.24
2023-05-11T15:13:32.588Z,26.74
2023-05-11T15:16:56.841Z,25.38
2023-05-11T15:21:05.559Z,26.30
2023-05-11T15:24:35.805Z,26.68
2023-05-11T15:28:15.918Z,26.30
2023-05-11T15:31:49.448Z,26.08
2023-05-11T15:34:58.629Z,26.14
2023-05-11T15:37:28.895Z,26.53
2023-05-11T15:40:52.829Z,26.52
2023-05-11T15:43:58.379Z,26.67
2023-05-11T15:46:45.161Z,26.62
2023-05-11T15:50:15.511Z,26.36
2023-05-11T15:53:47.939Z,26.33
2023-05-11T15:57:02.390Z,26.48
2023-05-11T16:00:50.006Z,26.20
2023-05-11T16:03:56.655Z,25.73
2023-05-11T16:07:28.675Z,25.80
2023-05-11T16:10:45.619Z,25.83
2023-05-11T16:14:13.730Z,25.68
2023-05-11T16:17:46.030Z,26.33
2023-05-11T16:20:41.293Z,26.34
2023-05-11T16:24:11.390Z,25.31
2023-05-11T16:26:51.957Z,25.18
2023-05-11T16:30:39.885Z,25.36
2023-05-11T16:34:21.225Z,25.56
2023-05-11T16:37:49.139Z,25.48
2023-05-11T16:41:24.442Z,25.73
2023-05-11T16:44:27.379Z,25.81
2023-05-11T16:47:57.924Z,25.43
2023-05-11T16:51:45.923Z,25.45
2023-05-11T16:55:08.374Z,25.45
2023-05-11T16:58:47.120Z,24.87
2023-05-11T17:02:28.638Z,25.22
2023-05-11T17:06:17.196Z,24.84
2023-05-11T17:09:58.395Z,24.60
2023-05-11T17:13:29.816Z,24.37
2023-05-11T17:16:26.940Z,23.94
2023-05-11T17:20:06.129Z,23.51
2023-05-11T17:23:44.537Z,23.36
2023-05-11T17:26:53.265Z,23.44
2023-05-11T17:30:29.835Z,23.13
2023-05-11T17:34:13.808Z,22.84
2023-05-11T17:38:02.365Z,22.79
2023-05-11T17:41:04.106Z,22.53
2023-05-11T17:44:31.978Z,22.47
2023-05-11T17:48:01.517Z,22.36
2023-05-11T17:51:49.948Z,22.29
2023-05-11T17:55:05.088Z,22.12
2023-05-11T17:58:28.510Z,21.99
2023-05-11T18:02:17.297Z,21.96
2023-05-11T18:05:58.797Z,21.80
2023-05-11T18:09:21.625Z,21.63
2023-05-11T18:13:09.676Z,21.46
2023-05-11T18:16:43.102Z,21.29
2023-05-11T18:20:24.750Z,21.19
2023-05-11T18:23:04.504Z,20.98
2023-05-11T18:26:12.988Z,20.91
2023-05-11T18:29:28.053Z,20.78
2023-05-11T18:33:16.456Z,20.63
2023-05-11T18:36:34.617Z,20.43
2023-05-11T18:40:13.412Z,20.34
2023-05-11T18:43:15.037Z,20.18
2023-05-11T18:46:59.982Z,20.01
2023-05-11T18:50:30.039Z,19.83
2023-05-11T18:54:12.871Z,19.67
2023-05-11T18:57:46.960Z,19.45
2023-05-11T19:00:56.907Z,19.26
2023-05-11T19:04:35.101Z,19.21
2023-05-11T19:08:02.852Z,19.22
2023-05-11T19:11:19.232Z,19.25
2023-05-11T19:14:47.527Z,19.12
2023-05-11T19:18:12.422Z,19.08
2023-05-11T19:22:02.468Z,19.04
2023-05-11T19:25:25.593Z,18.98
2023-05-11T19:29:16.674Z,18.88
2023-05-11T19:32:14.455Z,18.81
2023-05-11T19:35:10.607Z,18.78
2023-05-11T19:38:40.894Z,18.72
2023-05-11T19:41:46.121Z,18.65
2023-05-11T19:45:10.985Z,18.59
2023-05-11T19:48:19.969Z,18.60
2023-05-11T19:51:58.727Z,18.54
2023-05-11T19:55:21.671Z,18.40
2023-05-11T19:59:06.018Z,18.36
2023-05-11T20:02:53.463Z,18.27
2023-05-11T20:06:34.632Z,18.16
2023-05-11T20:09:52.105Z,18.12
2023-05-11T20:13:02.160Z,18.07
2023-05-11T20:16:12.832Z,18.00
2023-05-11T20:19:43.891Z,17.98
2023-05-11T20:24:07.384Z,17.84
2023-05-11T20:27:19.399Z,17.69
2023-05-11T20:30:59.268Z,17.63
2023-05-11T20:34:47.835Z,17.54
2023-05-11T20:38:29.436Z,17.53
2023-05-11T20:41:50.035Z,17.45
2023-05-11T20:44:45.568Z,17.37
2023-05-11T20:47:39.792Z,17.35
2023-05-11T20:51:04.943Z,17.30
2023-05-11T20:54:44.488Z,17.21
2023-05-11T20:58:04.547Z,17.11
2023-05-11T21:01:37.910Z,17.09
2023-05-11T21:05:01.194Z,17.01
2023-05-11T21:08:27.435Z,16.97
2023-05-11T21:11:51.030Z,16.95
2023-05-11T21:14:58.860Z,16.87
2023-05-11T21:18:01.791Z,16.81
2023-05-11T21:21:50.496Z,16.76
2023-05-11T21:25:16.619Z,16.68
2023-05-11T21:29:05.116Z,16.62
2023-05-11T21:32:19.346Z,16.54
2023-05-11T21:36:08.134Z,16.46
2023-05-11T21:39:37.849Z,16.41
2023-05-11T21:42:47.056Z,16.38
2023-05-11T21:46:08.941Z,16.34
2023-05-11T21:49:20.556Z,16.30
2023-05-11T21:52:51.126Z,16.26
2023-05-11T21:55:57.246Z,16.16
2023-05-11T21:59:39.875Z,16.11
2023-05-11T22:03:28.195Z,16.00
2023-05-11T22:06:32.896Z,15.84
2023-05-11T22:09:23.680Z,15.84
2023-05-11T22:13:11.469Z,15.76
2023-05-11T22:16:22.820Z,15.65
2023-05-11T22:19:21.157Z,15.58
2023-05-11T22:22:32.103Z,15.48
2023-05-11T22:26:01.909Z,15.48
2023-05-11T22:29:06.057Z,15.38
2023-05-11T22:32:35.443Z,15.33
2023-05-11T22:35:48.538Z,15.21
2023-05-11T22:38:36.132Z,15.20
2023-05-11T22:41:47.617Z,15.20
2023-05-11T22:45:15.251Z,15.15
2023-05-11T22:48:13.729Z,15.09
2023-05-11T22:51:08.479Z,15.08
2023-05-11T22:54:09.172Z,15.03
2023-05-11T22:57:39.682Z,14.92
2023-05-11T23:00:32.422Z,14.86
2023-05-11T23:03:50.406Z,14.84
2023-05-11T23:06:53.141Z,14.73
2023-05-11T23:09:52.074Z,14.70
2023-05-11T23:13:23.395Z,14.60
2023-05-11T23:16:24.362Z,14.51
2023-05-11T23:19:49.735Z,14.49
2023-05-11T23:23:26.621Z,14.40
2023-05-11T23:26:40.990Z,14.31
2023-05-11T23:30:11.244Z,14.22
2023-05-11T23:33:39.148Z,14.11
2023-05-11T23:36:50.333Z,14.05
2023-05-11T23:39:22.813Z,14.04
2023-05-11T23:42:23.925Z,13.98
2023-05-11T23:46:01.468Z,13.93
2023-05-11T23:49:37.755Z,13.88
2023-05-11T23:52:49.591Z,13.71
2023-05-11T23:55:35.426Z,13.61
2023-05-11T23:59:12.768Z,13.56
